CheckWX is a tool to help pilots better visualize weather data.  It is not intended as a substitute for an official pre-flight weather briefing.

16:38:47 UTC

LTCL TAF
Siirt Airport
Siirt, Turkey
TAF LTCL 181340Z 1815/1824 VRB02KT 9999 FEW040 BECMG 1815/1818 CAVOK

Mar-18@
15:00 UTC

Mar-18 @ 15:00 UTC

Mar-19@
00:00 UTC

Mar-19 @ 00:00 UTC

TAF LTCL 181340Z 1815/1824 VRB02KT 9999 FEW040
Wind
  • Variable at 2 KTS
Cloud Levels
  • Few at 4,000' AGL

Mar-18@
15:00 UTC

Mar-18 @ 15:00 UTC

Mar-19@
00:00 UTC

Mar-19 @ 00:00 UTC

BECMG 1815/1818 CAVOK

Becoming

Becoming Conditions expected by Mon, Mar 18, 2019 @ 18:00 UTC

Wind
  • Variable at 2 KTS
Conditions
No significant weather
Cloud Levels
  • No significant clouds